East Keating, Pennsylvania
Current Conditions -  °F | °C
As of 11:54 AM on Saturday 25 Oct 2014 (Local Time) from KFIG Reporting Station
Broken Clouds Broken Clouds  
Wind Chill: 17°   Ceiling: 9000
Heat Index: 17°   Visibility: 10mi
Dew Point:   Wind: 10mph
Humidity: 58%   Direction: 260°W
Pressure: 29.85"   Gusts: 20mph
Location:  41.3342°N, 77.9676°W
Report Text: KFIG 251554Z AUTO 26009G17KT 10SM SCT032 BKN090 17/08 A2985 RMK AO2 SLP110 T01670083
Loading
Personal Weather Stations






























Interactive Weather Map
Tropical Storm Tracking
New forecast layout! Learn more

10-Day Weather Forecast

Advertisements
Track Severe Weather on mobile